sensor_id;sensor_type;location;lat;lon;timestamp;temperature;humidity
53274;DHT22;39163;52.696;6.758;2022-11-27T00:01:18;6.60;99.90
53274;DHT22;39163;52.696;6.758;2022-11-27T00:03:44;6.60;99.90
53274;DHT22;39163;52.696;6.758;2022-11-27T00:06:15;6.60;99.90
53274;DHT22;39163;52.696;6.758;2022-11-27T00:08:43;6.60;99.90
53274;DHT22;39163;52.696;6.758;2022-11-27T00:11:13;6.50;99.90
53274;DHT22;39163;52.696;6.758;2022-11-27T00:13:39;6.50;99.90
53274;DHT22;39163;52.696;6.758;2022-11-27T00:16:05;6.50;99.90
53274;DHT22;39163;52.696;6.758;2022-11-27T00:18:32;6.40;99.90
53274;DHT22;39163;52.696;6.758;2022-11-27T00:21:13;6.40;99.90
53274;DHT22;39163;52.696;6.758;2022-11-27T00:23:42;6.40;99.90
53274;DHT22;39163;52.696;6.758;2022-11-27T00:26:13;6.50;99.90
53274;DHT22;39163;52.696;6.758;2022-11-27T00:28:39;6.40;99.90
53274;DHT22;39163;52.696;6.758;2022-11-27T00:31:11;6.50;99.90
53274;DHT22;39163;52.696;6.758;2022-11-27T00:33:37;6.40;99.90
53274;DHT22;39163;52.696;6.758;2022-11-27T00:36:13;6.40;99.90
53274;DHT22;39163;52.696;6.758;2022-11-27T00:38:44;6.40;99.90
53274;DHT22;39163;52.696;6.758;2022-11-27T00:41:14;6.40;99.90
53274;DHT22;39163;52.696;6.758;2022-11-27T00:43:39;6.40;99.90
53274;DHT22;39163;52.696;6.758;2022-11-27T00:46:15;6.40;99.90
53274;DHT22;39163;52.696;6.758;2022-11-27T00:48:42;6.30;99.90
53274;DHT22;39163;52.696;6.758;2022-11-27T00:51:11;6.30;99.90
53274;DHT22;39163;52.696;6.758;2022-11-27T00:53:41;6.30;99.90
53274;DHT22;39163;52.696;6.758;2022-11-27T00:56:15;6.20;99.90
53274;DHT22;39163;52.696;6.758;2022-11-27T00:58:41;6.20;99.90
53274;DHT22;39163;52.696;6.758;2022-11-27T01:01:07;6.20;99.90
53274;DHT22;39163;52.696;6.758;2022-11-27T01:03:33;6.10;99.90
53274;DHT22;39163;52.696;6.758;2022-11-27T01:06:08;6.20;99.90
53274;DHT22;39163;52.696;6.758;2022-11-27T01:08:34;6.00;99.90
53274;DHT22;39163;52.696;6.758;2022-11-27T01:11:00;6.00;99.90
53274;DHT22;39163;52.696;6.758;2022-11-27T01:13:28;6.00;99.90
53274;DHT22;39163;52.696;6.758;2022-11-27T01:16:11;6.10;99.90
53274;DHT22;39163;52.696;6.758;2022-11-27T01:18:39;6.00;99.90
53274;DHT22;39163;52.696;6.758;2022-11-27T01:21:09;6.10;99.90
53274;DHT22;39163;52.696;6.758;2022-11-27T01:23:35;5.90;99.90
53274;DHT22;39163;52.696;6.758;2022-11-27T01:26:05;5.90;99.90
53274;DHT22;39163;52.696;6.758;2022-11-27T01:28:32;5.90;99.90
53274;DHT22;39163;52.696;6.758;2022-11-27T01:31:06;5.90;99.90
53274;DHT22;39163;52.696;6.758;2022-11-27T01:33:33;5.90;99.90
53274;DHT22;39163;52.696;6.758;2022-11-27T01:36:01;6.00;99.90
53274;DHT22;39163;52.696;6.758;2022-11-27T01:38:28;5.80;99.90
53274;DHT22;39163;52.696;6.758;2022-11-27T01:41:13;5.90;99.90
53274;DHT22;39163;52.696;6.758;2022-11-27T01:43:44;5.80;99.90
53274;DHT22;39163;52.696;6.758;2022-11-27T01:46:38;5.80;99.90
53274;DHT22;39163;52.696;6.758;2022-11-27T01:49:25;5.70;99.90
53274;DHT22;39163;52.696;6.758;2022-11-27T01:52:06;5.70;99.90
53274;DHT22;39163;52.696;6.758;2022-11-27T01:54:40;5.70;99.90
53274;DHT22;39163;52.696;6.758;2022-11-27T01:57:21;5.70;99.90
53274;DHT22;39163;52.696;6.758;2022-11-27T01:59:48;5.70;99.90
53274;DHT22;39163;52.696;6.758;2022-11-27T02:02:15;5.60;99.90
53274;DHT22;39163;52.696;6.758;2022-11-27T02:04:41;5.70;99.90
53274;DHT22;39163;52.696;6.758;2022-11-27T02:07:06;5.60;99.90
53274;DHT22;39163;52.696;6.758;2022-11-27T02:09:32;5.70;99.90
53274;DHT22;39163;52.696;6.758;2022-11-27T02:12:14;5.70;99.90
53274;DHT22;39163;52.696;6.758;2022-11-27T02:20:15;5.60;99.90
53274;DHT22;39163;52.696;6.758;2022-11-27T02:28:24;5.50;99.90
53274;DHT22;39163;52.696;6.758;2022-11-27T02:31:13;5.60;99.90
53274;DHT22;39163;52.696;6.758;2022-11-27T02:33:43;5.50;99.90
53274;DHT22;39163;52.696;6.758;2022-11-27T02:36:16;5.50;99.90
53274;DHT22;39163;52.696;6.758;2022-11-27T02:38:54;5.50;99.90
53274;DHT22;39163;52.696;6.758;2022-11-27T02:41:27;5.50;99.90
53274;DHT22;39163;52.696;6.758;2022-11-27T02:43:55;5.50;99.90
53274;DHT22;39163;52.696;6.758;2022-11-27T02:46:23;5.50;99.90
53274;DHT22;39163;52.696;6.758;2022-11-27T02:48:56;5.40;99.90
53274;DHT22;39163;52.696;6.758;2022-11-27T02:51:28;5.50;99.90
53274;DHT22;39163;52.696;6.758;2022-11-27T02:54:02;5.50;99.90
53274;DHT22;39163;52.696;6.758;2022-11-27T02:56:30;5.40;99.90
53274;DHT22;39163;52.696;6.758;2022-11-27T02:59:04;5.50;99.90
53274;DHT22;39163;52.696;6.758;2022-11-27T03:01:34;5.50;99.90
53274;DHT22;39163;52.696;6.758;2022-11-27T03:04:05;5.40;99.90
53274;DHT22;39163;52.696;6.758;2022-11-27T03:06:40;5.40;99.90
53274;DHT22;39163;52.696;6.758;2022-11-27T03:09:21;5.50;99.90
53274;DHT22;39163;52.696;6.758;2022-11-27T03:11:49;5.40;99.90
53274;DHT22;39163;52.696;6.758;2022-11-27T03:14:15;5.40;99.90
53274;DHT22;39163;52.696;6.758;2022-11-27T03:16:54;5.40;99.90
53274;DHT22;39163;52.696;6.758;2022-11-27T03:19:30;5.40;99.90
53274;DHT22;39163;52.696;6.758;2022-11-27T03:22:01;5.50;99.90
53274;DHT22;39163;52.696;6.758;2022-11-27T03:24:29;5.40;99.90
53274;DHT22;39163;52.696;6.758;2022-11-27T03:26:59;5.50;99.90
53274;DHT22;39163;52.696;6.758;2022-11-27T03:29:42;5.50;99.90
53274;DHT22;39163;52.696;6.758;2022-11-27T03:32:09;5.50;99.90
53274;DHT22;39163;52.696;6.758;2022-11-27T03:34:34;5.60;99.90
53274;DHT22;39163;52.696;6.758;2022-11-27T03:37:01;5.60;99.90
53274;DHT22;39163;52.696;6.758;2022-11-27T03:39:28;5.60;99.90
53274;DHT22;39163;52.696;6.758;2022-11-27T03:53:43;5.70;99.90
53274;DHT22;39163;52.696;6.758;2022-11-27T03:56:12;5.60;99.90
53274;DHT22;39163;52.696;6.758;2022-11-27T04:01:45;5.60;99.90
53274;DHT22;39163;52.696;6.758;2022-11-27T04:04:10;5.60;99.90
53274;DHT22;39163;52.696;6.758;2022-11-27T04:06:36;5.60;99.90
53274;DHT22;39163;52.696;6.758;2022-11-27T04:09:02;5.60;99.90
53274;DHT22;39163;52.696;6.758;2022-11-27T04:11:28;5.60;99.90
53274;DHT22;39163;52.696;6.758;2022-11-27T04:13:54;5.60;99.90
53274;DHT22;39163;52.696;6.758;2022-11-27T04:16:19;5.60;99.90
53274;DHT22;39163;52.696;6.758;2022-11-27T04:18:45;5.60;99.90
53274;DHT22;39163;52.696;6.758;2022-11-27T04:21:11;5.60;99.90
53274;DHT22;39163;52.696;6.758;2022-11-27T04:23:37;5.70;99.90
53274;DHT22;39163;52.696;6.758;2022-11-27T04:26:04;5.70;99.90
53274;DHT22;39163;52.696;6.758;2022-11-27T04:28:30;5.60;99.90
53274;DHT22;39163;52.696;6.758;2022-11-27T04:30:56;5.60;99.90
53274;DHT22;39163;52.696;6.758;2022-11-27T04:33:22;5.60;99.90
53274;DHT22;39163;52.696;6.758;2022-11-27T04:35:57;5.60;99.90
53274;DHT22;39163;52.696;6.758;2022-11-27T04:38:22;5.60;99.90
53274;DHT22;39163;52.696;6.758;2022-11-27T04:40:50;5.60;99.90
53274;DHT22;39163;52.696;6.758;2022-11-27T04:43:16;5.50;99.90
53274;DHT22;39163;52.696;6.758;2022-11-27T04:45:45;5.50;99.90
53274;DHT22;39163;52.696;6.758;2022-11-27T04:48:11;5.50;99.90
53274;DHT22;39163;52.696;6.758;2022-11-27T04:50:37;5.50;99.90
53274;DHT22;39163;52.696;6.758;2022-11-27T04:53:04;5.50;99.90
53274;DHT22;39163;52.696;6.758;2022-11-27T04:55:30;5.50;99.90
53274;DHT22;39163;52.696;6.758;2022-11-27T04:57:55;5.50;99.90
53274;DHT22;39163;52.696;6.758;2022-11-27T05:00:21;5.50;99.90
53274;DHT22;39163;52.696;6.758;2022-11-27T05:02:47;5.50;99.90
53274;DHT22;39163;52.696;6.758;2022-11-27T05:05:12;5.60;99.90
53274;DHT22;39163;52.696;6.758;2022-11-27T05:07:38;5.50;99.90
53274;DHT22;39163;52.696;6.758;2022-11-27T05:10:05;5.50;99.90
53274;DHT22;39163;52.696;6.758;2022-11-27T05:12:31;5.50;99.90
53274;DHT22;39163;52.696;6.758;2022-11-27T05:15:00;5.50;99.90
53274;DHT22;39163;52.696;6.758;2022-11-27T05:17:26;5.60;99.90
53274;DHT22;39163;52.696;6.758;2022-11-27T05:19:51;5.60;99.90
53274;DHT22;39163;52.696;6.758;2022-11-27T05:22:17;5.60;99.90
53274;DHT22;39163;52.696;6.758;2022-11-27T05:24:46;5.60;99.90
53274;DHT22;39163;52.696;6.758;2022-11-27T05:27:12;5.50;99.90
53274;DHT22;39163;52.696;6.758;2022-11-27T05:29:37;5.60;99.90
53274;DHT22;39163;52.696;6.758;2022-11-27T05:32:07;5.60;99.90
53274;DHT22;39163;52.696;6.758;2022-11-27T05:34:34;5.60;99.90
53274;DHT22;39163;52.696;6.758;2022-11-27T05:36:59;5.60;99.90
53274;DHT22;39163;52.696;6.758;2022-11-27T05:39:25;5.60;99.90
53274;DHT22;39163;52.696;6.758;2022-11-27T05:41:51;5.60;99.90
53274;DHT22;39163;52.696;6.758;2022-11-27T05:44:16;5.60;99.90
53274;DHT22;39163;52.696;6.758;2022-11-27T05:46:42;5.60;99.90
53274;DHT22;39163;52.696;6.758;2022-11-27T05:49:11;5.70;99.90
53274;DHT22;39163;52.696;6.758;2022-11-27T05:51:38;5.60;99.90
53274;DHT22;39163;52.696;6.758;2022-11-27T05:54:03;5.60;99.90
53274;DHT22;39163;52.696;6.758;2022-11-27T05:56:29;5.70;99.90
53274;DHT22;39163;52.696;6.758;2022-11-27T05:58:55;5.70;99.90
53274;DHT22;39163;52.696;6.758;2022-11-27T06:01:21;5.70;99.90
53274;DHT22;39163;52.696;6.758;2022-11-27T06:03:46;5.70;99.90
53274;DHT22;39163;52.696;6.758;2022-11-27T06:06:15;5.70;99.90
53274;DHT22;39163;52.696;6.758;2022-11-27T06:08:42;5.60;99.90
53274;DHT22;39163;52.696;6.758;2022-11-27T06:11:10;5.60;99.90
53274;DHT22;39163;52.696;6.758;2022-11-27T06:13:36;5.60;99.90
53274;DHT22;39163;52.696;6.758;2022-11-27T06:16:11;5.60;99.90
53274;DHT22;39163;52.696;6.758;2022-11-27T06:18:37;5.60;99.90
53274;DHT22;39163;52.696;6.758;2022-11-27T06:21:08;5.70;99.90
53274;DHT22;39163;52.696;6.758;2022-11-27T06:23:34;5.70;99.90
53274;DHT22;39163;52.696;6.758;2022-11-27T06:26:17;5.70;99.90
53274;DHT22;39163;52.696;6.758;2022-11-27T06:28:44;5.70;99.90
53274;DHT22;39163;52.696;6.758;2022-11-27T06:31:13;5.70;99.90
53274;DHT22;39163;52.696;6.758;2022-11-27T06:33:40;5.70;99.90
53274;DHT22;39163;52.696;6.758;2022-11-27T06:36:06;5.70;99.90
53274;DHT22;39163;52.696;6.758;2022-11-27T06:38:33;5.70;99.90
53274;DHT22;39163;52.696;6.758;2022-11-27T06:41:08;5.70;99.90
53274;DHT22;39163;52.696;6.758;2022-11-27T06:43:34;5.70;99.90
53274;DHT22;39163;52.696;6.758;2022-11-27T06:46:01;5.70;99.90
53274;DHT22;39163;52.696;6.758;2022-11-27T06:48:27;5.70;99.90
53274;DHT22;39163;52.696;6.758;2022-11-27T06:50:53;5.70;99.90
53274;DHT22;39163;52.696;6.758;2022-11-27T06:53:22;5.70;99.90
53274;DHT22;39163;52.696;6.758;2022-11-27T06:55:48;5.70;99.90
53274;DHT22;39163;52.696;6.758;2022-11-27T06:58:14;5.70;99.90
53274;DHT22;39163;52.696;6.758;2022-11-27T07:00:40;5.70;99.90
53274;DHT22;39163;52.696;6.758;2022-11-27T07:03:06;5.80;99.90
53274;DHT22;39163;52.696;6.758;2022-11-27T07:05:31;5.70;99.90
53274;DHT22;39163;52.696;6.758;2022-11-27T07:07:57;5.70;99.90
53274;DHT22;39163;52.696;6.758;2022-11-27T07:10:23;5.70;99.90
53274;DHT22;39163;52.696;6.758;2022-11-27T07:12:49;5.70;99.90
53274;DHT22;39163;52.696;6.758;2022-11-27T07:15:15;5.70;99.90
53274;DHT22;39163;52.696;6.758;2022-11-27T07:17:40;5.70;99.90
53274;DHT22;39163;52.696;6.758;2022-11-27T07:20:06;5.70;99.90
53274;DHT22;39163;52.696;6.758;2022-11-27T07:22:32;5.70;99.90
53274;DHT22;39163;52.696;6.758;2022-11-27T07:24:58;5.80;99.90
53274;DHT22;39163;52.696;6.758;2022-11-27T07:27:24;5.80;99.90
53274;DHT22;39163;52.696;6.758;2022-11-27T07:29:51;5.90;99.90
53274;DHT22;39163;52.696;6.758;2022-11-27T07:32:17;5.90;99.90
53274;DHT22;39163;52.696;6.758;2022-11-27T07:34:43;5.80;99.90
53274;DHT22;39163;52.696;6.758;2022-11-27T07:37:09;5.80;99.90
53274;DHT22;39163;52.696;6.758;2022-11-27T07:39:34;5.80;99.90
53274;DHT22;39163;52.696;6.758;2022-11-27T07:42:00;5.80;99.90
53274;DHT22;39163;52.696;6.758;2022-11-27T07:44:25;5.80;99.90
53274;DHT22;39163;52.696;6.758;2022-11-27T07:46:51;5.80;99.90
53274;DHT22;39163;52.696;6.758;2022-11-27T07:49:17;5.80;99.90
53274;DHT22;39163;52.696;6.758;2022-11-27T07:51:43;5.90;99.90
53274;DHT22;39163;52.696;6.758;2022-11-27T07:54:09;5.90;99.90
53274;DHT22;39163;52.696;6.758;2022-11-27T07:56:34;5.90;99.90
53274;DHT22;39163;52.696;6.758;2022-11-27T07:59:00;6.00;99.90
53274;DHT22;39163;52.696;6.758;2022-11-27T08:01:26;5.90;99.90
53274;DHT22;39163;52.696;6.758;2022-11-27T08:03:51;5.90;99.90
53274;DHT22;39163;52.696;6.758;2022-11-27T08:06:20;5.90;99.90
53274;DHT22;39163;52.696;6.758;2022-11-27T08:08:47;6.00;99.90
53274;DHT22;39163;52.696;6.758;2022-11-27T08:13:47;6.00;99.90
53274;DHT22;39163;52.696;6.758;2022-11-27T08:16:13;6.10;99.90
53274;DHT22;39163;52.696;6.758;2022-11-27T08:18:39;6.10;99.90
53274;DHT22;39163;52.696;6.758;2022-11-27T08:21:04;6.20;99.90
53274;DHT22;39163;52.696;6.758;2022-11-27T08:23:30;6.10;99.90
53274;DHT22;39163;52.696;6.758;2022-11-27T08:25:56;6.20;99.90
53274;DHT22;39163;52.696;6.758;2022-11-27T08:28:21;6.20;99.90
53274;DHT22;39163;52.696;6.758;2022-11-27T08:30:55;6.30;99.90
53274;DHT22;39163;52.696;6.758;2022-11-27T08:33:21;6.20;99.90
53274;DHT22;39163;52.696;6.758;2022-11-27T08:35:48;6.30;99.90
53274;DHT22;39163;52.696;6.758;2022-11-27T08:38:13;6.30;99.90
53274;DHT22;39163;52.696;6.758;2022-11-27T08:40:39;6.30;99.90
53274;DHT22;39163;52.696;6.758;2022-11-27T08:43:05;6.40;99.90
53274;DHT22;39163;52.696;6.758;2022-11-27T08:45:31;6.40;99.90
53274;DHT22;39163;52.696;6.758;2022-11-27T08:47:57;6.40;99.90
53274;DHT22;39163;52.696;6.758;2022-11-27T08:50:24;6.40;99.90
53274;DHT22;39163;52.696;6.758;2022-11-27T08:52:49;6.40;99.90
53274;DHT22;39163;52.696;6.758;2022-11-27T08:55:15;6.40;99.90
53274;DHT22;39163;52.696;6.758;2022-11-27T08:57:41;6.50;99.90
53274;DHT22;39163;52.696;6.758;2022-11-27T09:00:07;6.50;99.90
53274;DHT22;39163;52.696;6.758;2022-11-27T09:02:33;6.50;99.90
53274;DHT22;39163;52.696;6.758;2022-11-27T09:04:59;6.50;99.90
53274;DHT22;39163;52.696;6.758;2022-11-27T09:07:27;6.50;99.90
53274;DHT22;39163;52.696;6.758;2022-11-27T09:09:53;6.60;99.90
53274;DHT22;39163;52.696;6.758;2022-11-27T09:12:18;6.50;99.90
53274;DHT22;39163;52.696;6.758;2022-11-27T09:14:44;6.50;99.90
53274;DHT22;39163;52.696;6.758;2022-11-27T09:17:09;6.50;99.90
53274;DHT22;39163;52.696;6.758;2022-11-27T09:19:35;6.50;99.90
53274;DHT22;39163;52.696;6.758;2022-11-27T09:22:01;6.50;99.90
53274;DHT22;39163;52.696;6.758;2022-11-27T09:24:27;6.50;99.90
53274;DHT22;39163;52.696;6.758;2022-11-27T09:26:52;6.50;99.90
53274;DHT22;39163;52.696;6.758;2022-11-27T09:29:18;6.40;99.90
53274;DHT22;39163;52.696;6.758;2022-11-27T09:31:44;6.40;99.90
53274;DHT22;39163;52.696;6.758;2022-11-27T09:34:10;6.40;99.90
53274;DHT22;39163;52.696;6.758;2022-11-27T09:36:35;6.40;99.90
53274;DHT22;39163;52.696;6.758;2022-11-27T09:39:01;6.40;99.90
53274;DHT22;39163;52.696;6.758;2022-11-27T09:43:56;6.40;99.90
53274;DHT22;39163;52.696;6.758;2022-11-27T09:46:39;6.40;99.90
53274;DHT22;39163;52.696;6.758;2022-11-27T09:49:08;6.30;99.90
53274;DHT22;39163;52.696;6.758;2022-11-27T09:51:41;6.40;99.90
53274;DHT22;39163;52.696;6.758;2022-11-27T09:56:49;6.40;99.90
53274;DHT22;39163;52.696;6.758;2022-11-27T09:59:18;6.40;99.90
53274;DHT22;39163;52.696;6.758;2022-11-27T10:01:44;6.30;99.90
53274;DHT22;39163;52.696;6.758;2022-11-27T10:04:12;6.40;99.90
53274;DHT22;39163;52.696;6.758;2022-11-27T10:12:07;6.30;99.90
53274;DHT22;39163;52.696;6.758;2022-11-27T10:14:43;6.30;99.90
53274;DHT22;39163;52.696;6.758;2022-11-27T10:17:19;6.30;99.90
53274;DHT22;39163;52.696;6.758;2022-11-27T10:25:24;6.30;99.90
53274;DHT22;39163;52.696;6.758;2022-11-27T10:33:54;6.30;99.90
53274;DHT22;39163;52.696;6.758;2022-11-27T10:36:30;6.40;99.90
53274;DHT22;39163;52.696;6.758;2022-11-27T10:38:59;6.30;99.90
53274;DHT22;39163;52.696;6.758;2022-11-27T10:41:33;6.40;99.90
53274;DHT22;39163;52.696;6.758;2022-11-27T10:44:27;6.40;99.90
53274;DHT22;39163;52.696;6.758;2022-11-27T10:47:03;6.40;99.90
53274;DHT22;39163;52.696;6.758;2022-11-27T10:49:30;6.40;99.90
53274;DHT22;39163;52.696;6.758;2022-11-27T10:51:58;6.40;99.90
53274;DHT22;39163;52.696;6.758;2022-11-27T10:54:31;6.40;99.90
53274;DHT22;39163;52.696;6.758;2022-11-27T10:59:36;6.40;99.90
53274;DHT22;39163;52.696;6.758;2022-11-27T11:02:33;6.50;99.90
53274;DHT22;39163;52.696;6.758;2022-11-27T11:05:21;6.50;99.90
53274;DHT22;39163;52.696;6.758;2022-11-27T11:08:15;6.50;99.90
53274;DHT22;39163;52.696;6.758;2022-11-27T11:10:56;6.50;99.90
53274;DHT22;39163;52.696;6.758;2022-11-27T11:13:26;6.50;99.90
53274;DHT22;39163;52.696;6.758;2022-11-27T11:18:44;6.50;99.90
53274;DHT22;39163;52.696;6.758;2022-11-27T11:21:26;6.50;99.90
53274;DHT22;39163;52.696;6.758;2022-11-27T11:26:43;6.50;99.90
53274;DHT22;39163;52.696;6.758;2022-11-27T11:29:36;6.50;99.90
53274;DHT22;39163;52.696;6.758;2022-11-27T11:34:32;6.60;99.90
53274;DHT22;39163;52.696;6.758;2022-11-27T11:37:07;6.60;99.90
53274;DHT22;39163;52.696;6.758;2022-11-27T11:39:40;6.70;99.90
53274;DHT22;39163;52.696;6.758;2022-11-27T11:42:30;6.60;99.90
53274;DHT22;39163;52.696;6.758;2022-11-27T11:47:58;6.60;99.90
53274;DHT22;39163;52.696;6.758;2022-11-27T12:09:32;6.70;99.90
53274;DHT22;39163;52.696;6.758;2022-11-27T12:34:01;7.00;99.90
53274;DHT22;39163;52.696;6.758;2022-11-27T12:40:33;7.00;99.90
53274;DHT22;39163;52.696;6.758;2022-11-27T12:43:20;7.00;99.90
53274;DHT22;39163;52.696;6.758;2022-11-27T12:46:04;7.00;99.90
53274;DHT22;39163;52.696;6.758;2022-11-27T12:48:49;6.90;99.90
53274;DHT22;39163;52.696;6.758;2022-11-27T12:51:40;6.90;99.90
53274;DHT22;39163;52.696;6.758;2022-11-27T12:54:34;6.80;99.90
53274;DHT22;39163;52.696;6.758;2022-11-27T12:57:16;6.80;99.90
53274;DHT22;39163;52.696;6.758;2022-11-27T13:00:03;6.80;99.90
53274;DHT22;39163;52.696;6.758;2022-11-27T13:02:42;6.80;99.90
53274;DHT22;39163;52.696;6.758;2022-11-27T13:05:18;6.70;99.90
53274;DHT22;39163;52.696;6.758;2022-11-27T13:16:21;6.70;99.90
53274;DHT22;39163;52.696;6.758;2022-11-27T13:19:11;6.70;99.90
53274;DHT22;39163;52.696;6.758;2022-11-27T13:21:40;6.70;99.90
53274;DHT22;39163;52.696;6.758;2022-11-27T13:24:11;6.60;99.90
53274;DHT22;39163;52.696;6.758;2022-11-27T13:26:53;6.70;99.90
53274;DHT22;39163;52.696;6.758;2022-11-27T13:29:40;6.70;99.90
53274;DHT22;39163;52.696;6.758;2022-11-27T13:32:08;6.60;99.90
53274;DHT22;39163;52.696;6.758;2022-11-27T13:34:44;6.60;99.90
53274;DHT22;39163;52.696;6.758;2022-11-27T13:37:34;6.70;99.90
53274;DHT22;39163;52.696;6.758;2022-11-27T13:40:21;6.60;99.90
53274;DHT22;39163;52.696;6.758;2022-11-27T13:42:50;6.60;99.90
53274;DHT22;39163;52.696;6.758;2022-11-27T13:45:29;6.60;99.90
53274;DHT22;39163;52.696;6.758;2022-11-27T13:47:57;6.60;99.90
53274;DHT22;39163;52.696;6.758;2022-11-27T13:50:24;6.70;99.90
53274;DHT22;39163;52.696;6.758;2022-11-27T13:52:57;6.60;99.90
53274;DHT22;39163;52.696;6.758;2022-11-27T13:55:37;6.60;99.90
53274;DHT22;39163;52.696;6.758;2022-11-27T13:58:04;6.60;99.90
53274;DHT22;39163;52.696;6.758;2022-11-27T14:00:36;6.70;99.90
53274;DHT22;39163;52.696;6.758;2022-11-27T14:03:03;6.60;99.90
53274;DHT22;39163;52.696;6.758;2022-11-27T14:05:43;6.60;99.90
53274;DHT22;39163;52.696;6.758;2022-11-27T14:08:24;6.60;99.90
53274;DHT22;39163;52.696;6.758;2022-11-27T14:11:01;6.70;99.90
53274;DHT22;39163;52.696;6.758;2022-11-27T14:13:34;6.70;99.90
53274;DHT22;39163;52.696;6.758;2022-11-27T14:16:01;6.60;99.90
53274;DHT22;39163;52.696;6.758;2022-11-27T14:18:29;6.60;99.90
53274;DHT22;39163;52.696;6.758;2022-11-27T14:21:00;6.70;99.90
53274;DHT22;39163;52.696;6.758;2022-11-27T14:23:46;6.70;99.90
53274;DHT22;39163;52.696;6.758;2022-11-27T14:28:41;6.60;99.90
53274;DHT22;39163;52.696;6.758;2022-11-27T14:31:33;6.70;99.90
53274;DHT22;39163;52.696;6.758;2022-11-27T14:34:00;6.70;99.90
53274;DHT22;39163;52.696;6.758;2022-11-27T14:36:36;6.60;99.90
53274;DHT22;39163;52.696;6.758;2022-11-27T14:39:03;6.70;99.90
53274;DHT22;39163;52.696;6.758;2022-11-27T14:41:29;6.70;99.90
53274;DHT22;39163;52.696;6.758;2022-11-27T14:44:03;6.70;99.90
53274;DHT22;39163;52.696;6.758;2022-11-27T14:46:31;6.70;99.90
53274;DHT22;39163;52.696;6.758;2022-11-27T14:48:57;6.70;99.90
53274;DHT22;39163;52.696;6.758;2022-11-27T14:51:25;6.70;99.90
53274;DHT22;39163;52.696;6.758;2022-11-27T14:54:02;6.70;99.90
53274;DHT22;39163;52.696;6.758;2022-11-27T14:56:38;6.70;99.90
53274;DHT22;39163;52.696;6.758;2022-11-27T14:59:05;6.70;99.90
53274;DHT22;39163;52.696;6.758;2022-11-27T15:01:36;6.80;99.90
53274;DHT22;39163;52.696;6.758;2022-11-27T15:04:04;6.80;99.90
53274;DHT22;39163;52.696;6.758;2022-11-27T15:06:34;6.70;99.90
53274;DHT22;39163;52.696;6.758;2022-11-27T15:09:01;6.70;99.90
53274;DHT22;39163;52.696;6.758;2022-11-27T15:11:28;6.70;99.90
53274;DHT22;39163;52.696;6.758;2022-11-27T15:13:57;6.70;99.90
53274;DHT22;39163;52.696;6.758;2022-11-27T15:16:25;6.70;99.90
53274;DHT22;39163;52.696;6.758;2022-11-27T15:18:59;6.80;99.90
53274;DHT22;39163;52.696;6.758;2022-11-27T15:21:26;6.70;99.90
53274;DHT22;39163;52.696;6.758;2022-11-27T15:23:55;6.70;99.90
53274;DHT22;39163;52.696;6.758;2022-11-27T15:26:33;6.80;99.90
53274;DHT22;39163;52.696;6.758;2022-11-27T15:29:00;6.70;99.90
53274;DHT22;39163;52.696;6.758;2022-11-27T15:34:05;6.70;99.90
53274;DHT22;39163;52.696;6.758;2022-11-27T15:36:55;6.60;99.90
53274;DHT22;39163;52.696;6.758;2022-11-27T15:42:01;6.60;99.90
53274;DHT22;39163;52.696;6.758;2022-11-27T15:44:29;6.60;99.90
53274;DHT22;39163;52.696;6.758;2022-11-27T15:46:58;6.60;99.90
53274;DHT22;39163;52.696;6.758;2022-11-27T15:49:24;6.60;99.90
53274;DHT22;39163;52.696;6.758;2022-11-27T15:51:50;6.60;99.90
53274;DHT22;39163;52.696;6.758;2022-11-27T15:54:16;6.60;99.90
53274;DHT22;39163;52.696;6.758;2022-11-27T15:56:42;6.70;99.90
53274;DHT22;39163;52.696;6.758;2022-11-27T15:59:09;6.60;99.90
53274;DHT22;39163;52.696;6.758;2022-11-27T16:01:36;6.60;99.90
53274;DHT22;39163;52.696;6.758;2022-11-27T16:04:02;6.60;99.90
53274;DHT22;39163;52.696;6.758;2022-11-27T16:06:28;6.70;99.90
53274;DHT22;39163;52.696;6.758;2022-11-27T16:09:00;6.60;99.90
53274;DHT22;39163;52.696;6.758;2022-11-27T16:11:28;6.70;99.90
53274;DHT22;39163;52.696;6.758;2022-11-27T16:13:54;6.60;99.90
53274;DHT22;39163;52.696;6.758;2022-11-27T16:16:20;6.60;99.90
53274;DHT22;39163;52.696;6.758;2022-11-27T16:18:46;6.70;99.90
53274;DHT22;39163;52.696;6.758;2022-11-27T16:21:14;6.60;99.90
53274;DHT22;39163;52.696;6.758;2022-11-27T16:23:40;6.70;99.90
53274;DHT22;39163;52.696;6.758;2022-11-27T16:26:06;6.60;99.90
53274;DHT22;39163;52.696;6.758;2022-11-27T16:28:33;6.60;99.90
53274;DHT22;39163;52.696;6.758;2022-11-27T16:31:00;6.60;99.90
53274;DHT22;39163;52.696;6.758;2022-11-27T16:33:30;6.60;99.90
53274;DHT22;39163;52.696;6.758;2022-11-27T16:36:19;6.60;99.90
53274;DHT22;39163;52.696;6.758;2022-11-27T16:39:00;6.70;99.90
53274;DHT22;39163;52.696;6.758;2022-11-27T16:41:26;6.60;99.90
53274;DHT22;39163;52.696;6.758;2022-11-27T16:44:10;6.60;99.90
53274;DHT22;39163;52.696;6.758;2022-11-27T16:46:36;6.60;99.90
53274;DHT22;39163;52.696;6.758;2022-11-27T16:49:03;6.60;99.90
53274;DHT22;39163;52.696;6.758;2022-11-27T16:51:31;6.60;99.90
53274;DHT22;39163;52.696;6.758;2022-11-27T16:54:00;6.60;99.90
53274;DHT22;39163;52.696;6.758;2022-11-27T16:56:27;6.60;99.90
53274;DHT22;39163;52.696;6.758;2022-11-27T16:58:57;6.60;99.90
53274;DHT22;39163;52.696;6.758;2022-11-27T17:01:33;6.60;99.90
53274;DHT22;39163;52.696;6.758;2022-11-27T17:04:01;6.60;99.90
53274;DHT22;39163;52.696;6.758;2022-11-27T17:06:30;6.80;99.90
53274;DHT22;39163;52.696;6.758;2022-11-27T17:09:00;6.70;99.90
53274;DHT22;39163;52.696;6.758;2022-11-27T17:11:29;6.80;99.90
53274;DHT22;39163;52.696;6.758;2022-11-27T17:14:15;6.80;99.90
53274;DHT22;39163;52.696;6.758;2022-11-27T17:16:41;6.80;99.90
53274;DHT22;39163;52.696;6.758;2022-11-27T17:19:14;6.80;99.90
53274;DHT22;39163;52.696;6.758;2022-11-27T17:21:48;6.90;99.90
53274;DHT22;39163;52.696;6.758;2022-11-27T17:24:22;6.80;99.90
53274;DHT22;39163;52.696;6.758;2022-11-27T17:26:50;6.90;99.90
53274;DHT22;39163;52.696;6.758;2022-11-27T17:29:28;6.90;99.90
53274;DHT22;39163;52.696;6.758;2022-11-27T17:31:54;6.90;99.90
53274;DHT22;39163;52.696;6.758;2022-11-27T17:34:45;6.90;99.90
53274;DHT22;39163;52.696;6.758;2022-11-27T17:37:12;6.90;99.90
53274;DHT22;39163;52.696;6.758;2022-11-27T17:39:44;6.90;99.90
53274;DHT22;39163;52.696;6.758;2022-11-27T17:42:10;7.00;99.90
53274;DHT22;39163;52.696;6.758;2022-11-27T17:44:35;7.00;99.90
53274;DHT22;39163;52.696;6.758;2022-11-27T17:47:07;7.00;99.90
53274;DHT22;39163;52.696;6.758;2022-11-27T17:49:33;7.00;99.90
53274;DHT22;39163;52.696;6.758;2022-11-27T17:51:58;7.00;99.90
53274;DHT22;39163;52.696;6.758;2022-11-27T17:54:24;7.00;99.90
53274;DHT22;39163;52.696;6.758;2022-11-27T17:56:50;7.00;99.90
53274;DHT22;39163;52.696;6.758;2022-11-27T17:59:19;7.10;99.90
53274;DHT22;39163;52.696;6.758;2022-11-27T18:01:45;7.00;99.90
53274;DHT22;39163;52.696;6.758;2022-11-27T18:04:28;7.00;99.90
53274;DHT22;39163;52.696;6.758;2022-11-27T18:06:56;7.10;99.90
53274;DHT22;39163;52.696;6.758;2022-11-27T18:09:29;7.10;99.90